Flight Track Log - Related Links

Times and Time Zones

All times are in EDT time to prevent confusion due to time zone crossing. See the SWA868 flight status page for this flight to view local times or setup timezone preferences in your user account.

Time Position Orientation Groundspeed Altitude Reporting Facility
EDT Latitude Longitude Course Direction KTS MPH feet Rate Location/Type
Fri 04:22:41 PM 39.1833 -76.7667 284° West 197 227 2,800  Level Potomac TRACON
Fri 04:23:47 PM 39.2000 -76.8500 284° West 223 257 6,000 3,286 Climbing Potomac TRACON
Fri 04:24:47 PM 39.2167 -76.9333 284° West 259 298 9,700 2,966 Climbing Potomac TRACON
Fri 04:26:43 PM 39.2122 -77.1211 268° West 291 335 14,700 2,761 Climbing Washington Center
Fri 04:27:43 PM 39.1483 -77.2108 227° Southwest 312 359 17,800 2,672 Climbing Washington Center
Fri 04:28:42 PM 39.0619 -77.2839 213° Southwest 322 371 20,000 2,250 Climbing Washington Center
Fri 04:29:43 PM 38.9939 -77.3836 229° Southwest 351 404 22,300 2,361 Climbing Washington Center
Fri 04:30:44 PM 38.9686 -77.5325 258° West 368 423 24,800 2,288 Climbing Washington Center
Fri 04:31:41 PM 38.9433 -77.6681 257° West 386 444 26,800 2,186 Climbing Washington Center
Fri 04:32:42 PM 38.9222 -77.8117 259° West 401 461 29,100 2,311 Climbing Washington Center
Fri 04:33:43 PM 38.9011 -77.9364 258° West 409 471 31,500 2,678 Climbing Washington Center
Fri 04:34:43 PM 38.8778 -78.0608 256° West 404 465 34,500 2,390 Climbing Washington Center
Fri 04:35:41 PM 38.8583 -78.1803 258° West 368 423 36,200 1,109 Climbing Washington Center
Fri 04:36:42 PM 38.8517 -78.3053 266° West 355 409 36,700 694 Climbing Washington Center
Fri 04:37:42 PM 38.8506 -78.4331 269° West 349 402 37,600 650 Climbing Washington Center
Fri 04:38:42 PM 38.8497 -78.5636 270° West 355 409 38,000 198 Climbing Washington Center
Fri 04:39:43 PM 38.8506 -78.6917 271° West 365 420 38,000  Level Washington Center
Fri 04:40:43 PM 38.8472 -78.8194 268° West 365 420 38,000  Level Washington Center
Fri 04:41:41 PM 38.8456 -78.9500 269° West 365 420 38,000  Level Washington Center
Fri 04:42:42 PM 38.8419 -79.0778 268° West 365 420 38,000  Level Washington Center
Fri 04:43:42 PM 38.8403 -79.2058 269° West 365 420 38,000  Level Washington Center
Fri 04:44:43 PM 38.8197 -79.3325 258° West 365 420 38,000  Level Washington Center
Fri 04:45:41 PM 38.7947 -79.4619 256° West 370 426 38,000  Level Washington Center
Fri 04:46:41 PM 38.7736 -79.5967 259° West 375 432 38,000  Level Washington Center
Fri 04:47:41 PM 38.7506 -79.7231 257° West 381 438 38,000  Level Washington Center
Fri 04:48:42 PM 38.7250 -79.8575 256° West 370 426 38,000  Level Washington Center
Fri 04:50:51 PM 38.6719 -80.1150 255° West 361 415 38,000  Level Indianapolis Center
Fri 04:51:53 PM 38.6503 -80.2375 257° West 356 410 38,000  Level Indianapolis Center
Fri 04:52:55 PM 38.6253 -80.3619 256° West 358 412 38,000  Level Indianapolis Center
Fri 04:53:57 PM 38.6039 -80.4828 257° West 349 402 38,000  Level Indianapolis Center
Fri 04:54:59 PM 38.5806 -80.6056 256° West 353 406 38,000  Level Indianapolis Center
Fri 04:56:01 PM 38.5522 -80.7506 256° West 350 403 38,000  Level Indianapolis Center
Fri 04:57:03 PM 38.5289 -80.8692 256° West 345 397 38,000  Level Indianapolis Center
Fri 04:58:05 PM 38.5061 -80.9881 256° West 343 395 38,000  Level Indianapolis Center
Fri 04:59:07 PM 38.4819 -81.1067 255° West 343 395 38,000  Level Indianapolis Center
Fri 05:00:10 PM 38.4592 -81.2239 256° West 339 390 38,000  Level Indianapolis Center
Fri 05:01:11 PM 38.4358 -81.3408 256° West 337 388 38,000  Level Indianapolis Center
Fri 05:02:13 PM 38.4119 -81.4592 256° West 341 392 38,000  Level Indianapolis Center
Fri 05:03:16 PM 38.3892 -81.5778 256° West 340 391 38,000  Level Indianapolis Center
Fri 05:04:18 PM 38.3600 -81.7186 255° West 340 391 38,000  Level Indianapolis Center
Fri 05:05:20 PM 38.3236 -81.8339 248° West 353 406 38,000  Level Indianapolis Center
Fri 05:06:22 PM 38.2758 -81.9472 242° Southwest 362 417 38,000  Level Indianapolis Center
Fri 05:07:24 PM 38.2283 -82.0619 242° Southwest 365 420 38,000  Level Indianapolis Center
Fri 05:08:26 PM 38.1800 -82.1750 241° Southwest 364 419 38,000  Level Indianapolis Center
Fri 05:09:28 PM 38.1322 -82.2914 242° Southwest 369 425 38,000  Level Indianapolis Center
Fri 05:10:30 PM 38.0775 -82.4181 241° Southwest 360 414 38,000  Level Indianapolis Center
Fri 05:11:32 PM 38.0297 -82.5325 242° Southwest 364 419 38,000  Level Indianapolis Center
Fri 05:12:34 PM 37.9819 -82.6433 241° Southwest 359 413 38,000  Level Indianapolis Center
Fri 05:13:36 PM 37.9347 -82.7542 242° Southwest 358 412 38,000  Level Indianapolis Center
Fri 05:14:38 PM 37.8803 -82.8808 241° Southwest 353 406 38,000  Level Indianapolis Center
Fri 05:15:40 PM 37.8333 -82.9900 241° Southwest 352 405 38,000  Level Indianapolis Center
Fri 05:16:42 PM 37.7867 -83.0986 241° Southwest 353 406 38,000  Level Indianapolis Center
Fri 05:17:44 PM 37.7392 -83.2075 241° Southwest 353 406 38,000 -145 Level Indianapolis Center
Fri 05:18:46 PM 37.6922 -83.3164 241° Southwest 353 406 37,700 -726 Descending Indianapolis Center
Fri 05:19:48 PM 37.6361 -83.4436 241° Southwest 356 410 36,500 -1,016 Descending Indianapolis Center
Fri 05:20:50 PM 37.5872 -83.5567 241° Southwest 368 423 35,600 -919 Descending Indianapolis Center
Fri 05:21:52 PM 37.5364 -83.6711 241° Southwest 374 430 34,600 -768 Descending Indianapolis Center
Fri 05:22:55 PM 37.4864 -83.7825 241° Southwest 369 425 34,000 -677 Descending Indianapolis Center
Fri 05:23:56 PM 37.4369 -83.8944 241° Southwest 367 422 33,200 -968 Descending Indianapolis Center
Fri 05:24:59 PM 37.3794 -84.0236 241° Southwest 364 419 32,000 -1,056 Descending Indianapolis Center
Fri 05:26:01 PM 37.3300 -84.1336 241° Southwest 362 417 31,000 -484 Descending Indianapolis Center
Fri 05:27:03 PM 37.2811 -84.2425 241° Southwest 360 414 31,000  Level Indianapolis Center
Fri 05:28:05 PM 37.2333 -84.3514 241° Southwest 358 412 31,000 -48 Level Indianapolis Center
Fri 05:29:07 PM 37.1853 -84.4592 241° Southwest 355 409 30,900 -629 Descending Indianapolis Center
Fri 05:30:09 PM 37.1272 -84.5853 240° Southwest 357 411 29,700 -1,065 Descending Indianapolis Center
Fri 05:31:11 PM 37.0783 -84.6925 240° Southwest 356 410 28,700 -919 Descending Indianapolis Center
Fri 05:32:13 PM 37.0325 -84.7939 241° Southwest 356 410 27,800 -919 Descending Indianapolis Center
Fri 05:33:15 PM 36.9847 -84.8978 240° Southwest 349 402 26,800 -1,065 Descending Indianapolis Center
Fri 05:34:17 PM 36.9281 -85.0231 241° Southwest 345 397 25,600 -1,065 Descending Indianapolis Center
Fri 05:35:19 PM 36.8806 -85.1250 240° Southwest 342 394 24,600 -968 Descending Indianapolis Center
Fri 05:36:21 PM 36.8328 -85.2250 239° Southwest 338 389 23,600 -919 Descending Indianapolis Center
Fri 05:37:23 PM 36.7853 -85.3278 240° Southwest 342 394 22,700 -938 Descending Indianapolis Center
Fri 05:37:57 PM 36.7553 -85.3875 238° Southwest 353 406 22,100 -447 Descending Memphis Center
Fri 05:38:57 PM 36.7014 -85.5047 240° Southwest 353 406 22,000 -100 Descending Memphis Center
Fri 05:39:57 PM 36.6569 -85.5953 239° Southwest 353 406 21,900 -650 Descending Memphis Center
Fri 05:40:57 PM 36.6128 -85.6908 240° Southwest 341 392 20,700 -1,450 Descending Memphis Center
Fri 05:41:57 PM 36.5703 -85.7811 240° Southwest 328 377 19,000 650 Descending Memphis Center
Fri 05:42:57 PM 36.5258 -85.8792 241° Southwest 310 357 22,000 -1,550 Climbing Memphis Center
Fri 05:43:57 PM 36.4831 -85.9669 239° Southwest 295 339 15,900 -3,750 Descending Memphis Center
Fri 05:44:57 PM 36.4442 -86.0464 239° Southwest 301 346 14,500 -1,550 Descending Memphis Center
Fri 05:45:57 PM 36.4036 -86.1361 241° Southwest 301 346 12,800 -1,700 Descending Memphis Center
Fri 05:46:57 PM 36.3586 -86.2236 237° Southwest 301 346 11,100 -1,400 Descending Memphis Center
Fri 05:47:57 PM 36.3194 -86.3028 238° Southwest 288 331 10,000 -1,100 Descending Memphis Center
Fri 05:48:57 PM 36.2844 -86.3767 240° Southwest 265 305 8,900 -1,200 Descending Memphis Center
Fri 05:49:57 PM 36.2472 -86.4556 240° Southwest 254 292 7,600 -1,300 Descending Memphis Center
Fri 05:50:57 PM 36.2036 -86.5272 233° Southwest 259 298 6,300 -1,050 Descending Memphis Center
Fri 05:51:57 PM 36.1397 -86.5481 195° South 242 278 5,500 -700 Descending Memphis Center
Fri 05:52:57 PM 36.0819 -86.5714 198° South 235 270 4,900 -800 Descending Memphis Center
Fri 05:53:57 PM 36.0283 -86.5944 199° South 217 250 3,900 -1,000 Descending Memphis Center
Fri 05:54:57 PM 35.9772 -86.6197 202° Southwest 207 238 2,900 -700 Descending Memphis Center
Fri 05:55:57 PM 35.9892 -86.6731 285° West 134 154 2,500 -438 Descending Memphis Center
Fri 05:57:55 PM 36.0667 -86.6833 354° North 127 146 1,600 -554 Descending Nashville TRACON
Fri 05:59:01 PM 36.1000 -86.6667 22° Northeast 129 148 800 -727 Descending Nashville TRACON
Fri 06:01:00 PM 36.1167 -86.6667 North  Level FlightAware Approximate
Fri 06:08:00 PM 36.1245 -86.6782 North  Level Estimated
Fri 06:09:00 PM 36.1245 -86.6782 North  Level Estimated
Fri 06:10:00 PM 36.1245 -86.6782 North  Level Estimated
Fri 06:11:00 PM 36.1245 -86.6782 North  Level Estimated
Fri 06:12:00 PM 36.1245 -86.6782 North  Level Estimated
Fri 06:13:00 PM 36.1245 -86.6782 North  Level Estimated
Fri 06:14:00 PM 36.1245 -86.6782 North  Level Estimated

Login

Don't have an account? Register now (free) for customized features, flight alerts, and more!